sensor_id;sensor_type;location;lat;lon;timestamp;pressure;altitude;pressure_sealevel;temperature;humidity
24666;BME280;29726;53.532;-1.478;2023-02-11T00:00:58;102104.88;;;14.40;100.00
24666;BME280;29726;53.532;-1.478;2023-02-11T00:03:43;102090.19;;;14.36;100.00
24666;BME280;29726;53.532;-1.478;2023-02-11T00:06:28;102077.69;;;14.37;100.00
24666;BME280;29726;53.532;-1.478;2023-02-11T00:09:12;102080.19;;;14.35;100.00
24666;BME280;29726;53.532;-1.478;2023-02-11T00:11:56;102090.84;;;14.40;100.00
24666;BME280;29726;53.532;-1.478;2023-02-11T00:14:40;102095.78;;;14.36;100.00
24666;BME280;29726;53.532;-1.478;2023-02-11T00:17:24;102092.88;;;14.40;100.00
24666;BME280;29726;53.532;-1.478;2023-02-11T00:20:08;102100.84;;;14.41;100.00
24666;BME280;29726;53.532;-1.478;2023-02-11T00:22:52;102091.41;;;14.35;100.00
24666;BME280;29726;53.532;-1.478;2023-02-11T00:25:40;102093.19;;;14.42;100.00
24666;BME280;29726;53.532;-1.478;2023-02-11T00:28:25;102068.94;;;14.35;100.00
24666;BME280;29726;53.532;-1.478;2023-02-11T00:31:09;102069.72;;;14.36;100.00
24666;BME280;29726;53.532;-1.478;2023-02-11T00:33:54;102064.78;;;14.40;100.00
24666;BME280;29726;53.532;-1.478;2023-02-11T00:36:38;102051.28;;;14.35;100.00
24666;BME280;29726;53.532;-1.478;2023-02-11T00:39:22;102054.91;;;14.35;100.00
24666;BME280;29726;53.532;-1.478;2023-02-11T00:42:06;102049.72;;;14.34;100.00
24666;BME280;29726;53.532;-1.478;2023-02-11T00:44:50;102057.69;;;14.35;100.00
24666;BME280;29726;53.532;-1.478;2023-02-11T00:47:34;102070.72;;;14.42;100.00
24666;BME280;29726;53.532;-1.478;2023-02-11T00:50:19;102088.34;;;14.42;100.00
24666;BME280;29726;53.532;-1.478;2023-02-11T00:53:02;102074.88;;;14.37;100.00
24666;BME280;29726;53.532;-1.478;2023-02-11T00:55:46;102091.50;;;14.44;100.00
24666;BME280;29726;53.532;-1.478;2023-02-11T00:58:30;102098.03;;;14.41;100.00
24666;BME280;29726;53.532;-1.478;2023-02-11T01:01:14;102092.41;;;14.41;100.00
24666;BME280;29726;53.532;-1.478;2023-02-11T01:03:58;102092.88;;;14.40;100.00
24666;BME280;29726;53.532;-1.478;2023-02-11T01:06:42;102086.34;;;14.43;100.00
24666;BME280;29726;53.532;-1.478;2023-02-11T01:09:26;102088.22;;;14.46;100.00
24666;BME280;29726;53.532;-1.478;2023-02-11T01:12:10;102081.16;;;14.41;100.00
24666;BME280;29726;53.532;-1.478;2023-02-11T01:14:54;102084.63;;;14.45;100.00
24666;BME280;29726;53.532;-1.478;2023-02-11T01:17:38;102097.00;;;14.48;100.00
24666;BME280;29726;53.532;-1.478;2023-02-11T01:20:24;102101.03;;;14.47;100.00
24666;BME280;29726;53.532;-1.478;2023-02-11T01:23:09;102108.69;;;14.46;100.00
24666;BME280;29726;53.532;-1.478;2023-02-11T01:25:53;102096.66;;;14.46;100.00
24666;BME280;29726;53.532;-1.478;2023-02-11T01:28:37;102102.72;;;14.44;100.00
24666;BME280;29726;53.532;-1.478;2023-02-11T01:31:21;102110.56;;;14.49;100.00
24666;BME280;29726;53.532;-1.478;2023-02-11T01:34:05;102103.06;;;14.46;100.00
24666;BME280;29726;53.532;-1.478;2023-02-11T01:36:49;102095.53;;;14.43;100.00
24666;BME280;29726;53.532;-1.478;2023-02-11T01:39:33;102108.69;;;14.46;100.00
24666;BME280;29726;53.532;-1.478;2023-02-11T01:42:20;102090.13;;;14.49;100.00
24666;BME280;29726;53.532;-1.478;2023-02-11T01:48:31;102108.56;;;14.50;100.00
24666;BME280;29726;53.532;-1.478;2023-02-11T01:51:24;102136.22;;;14.51;100.00
24666;BME280;29726;53.532;-1.478;2023-02-11T01:54:14;102139.47;;;14.50;100.00
24666;BME280;29726;53.532;-1.478;2023-02-11T01:57:21;102140.25;;;14.50;100.00
24666;BME280;29726;53.532;-1.478;2023-02-11T02:03:17;102127.69;;;14.42;100.00
24666;BME280;29726;53.532;-1.478;2023-02-11T02:06:12;102114.56;;;14.39;100.00
24666;BME280;29726;53.532;-1.478;2023-02-11T02:09:07;102096.59;;;14.24;100.00
24666;BME280;29726;53.532;-1.478;2023-02-11T02:11:52;102125.22;;;14.44;100.00
24666;BME280;29726;53.532;-1.478;2023-02-11T02:14:40;102141.84;;;14.51;100.00
24666;BME280;29726;53.532;-1.478;2023-02-11T02:17:37;102141.03;;;14.51;100.00
24666;BME280;29726;53.532;-1.478;2023-02-11T02:20:51;102137.44;;;14.50;100.00
24666;BME280;29726;53.532;-1.478;2023-02-11T02:27:25;102122.16;;;14.51;100.00
24666;BME280;29726;53.532;-1.478;2023-02-11T02:36:54;102122.94;;;14.52;100.00
24666;BME280;29726;53.532;-1.478;2023-02-11T02:39:44;102130.59;;;14.51;100.00
24666;BME280;29726;53.532;-1.478;2023-02-11T02:42:29;102125.88;;;14.48;100.00
24666;BME280;29726;53.532;-1.478;2023-02-11T02:45:14;102122.41;;;14.44;100.00
24666;BME280;29726;53.532;-1.478;2023-02-11T02:47:59;102119.47;;;14.48;100.00
24666;BME280;29726;53.532;-1.478;2023-02-11T02:50:43;102128.69;;;14.48;100.00
24666;BME280;29726;53.532;-1.478;2023-02-11T02:53:32;102122.63;;;14.50;100.00
24666;BME280;29726;53.532;-1.478;2023-02-11T02:56:32;102125.88;;;14.48;100.00
24666;BME280;29726;53.532;-1.478;2023-02-11T02:59:42;102126.66;;;14.49;100.00
24666;BME280;29726;53.532;-1.478;2023-02-11T03:02:35;102123.19;;;14.45;100.00
24666;BME280;29726;53.532;-1.478;2023-02-11T03:11:24;102120.19;;;14.39;100.00
24666;BME280;29726;53.532;-1.478;2023-02-11T03:14:12;102129.25;;;14.43;100.00
24666;BME280;29726;53.532;-1.478;2023-02-11T03:17:00;102136.13;;;14.42;100.00
24666;BME280;29726;53.532;-1.478;2023-02-11T03:19:49;102133.44;;;14.39;100.00
24666;BME280;29726;53.532;-1.478;2023-02-11T03:22:41;102124.47;;;14.31;100.00
24666;BME280;29726;53.532;-1.478;2023-02-11T03:25:29;102143.44;;;14.40;100.00
24666;BME280;29726;53.532;-1.478;2023-02-11T03:31:26;102122.59;;;14.28;100.00
24666;BME280;29726;53.532;-1.478;2023-02-11T03:34:26;102118.19;;;14.27;100.00
24666;BME280;29726;53.532;-1.478;2023-02-11T03:37:51;102134.00;;;14.34;100.00
24666;BME280;29726;53.532;-1.478;2023-02-11T03:40:39;102133.22;;;14.33;100.00
24666;BME280;29726;53.532;-1.478;2023-02-11T03:43:32;102126.28;;;14.25;100.00
24666;BME280;29726;53.532;-1.478;2023-02-11T03:46:21;102146.28;;;14.27;100.00
24666;BME280;29726;53.532;-1.478;2023-02-11T03:49:11;102155.16;;;14.26;100.00
24666;BME280;29726;53.532;-1.478;2023-02-11T03:51:57;102158.31;;;14.28;100.00
24666;BME280;29726;53.532;-1.478;2023-02-11T03:54:45;102155.94;;;14.26;100.00
24666;BME280;29726;53.532;-1.478;2023-02-11T03:57:32;102159.97;;;14.25;100.00
24666;BME280;29726;53.532;-1.478;2023-02-11T04:00:17;102169.66;;;14.24;100.00
24666;BME280;29726;53.532;-1.478;2023-02-11T04:03:02;102168.88;;;14.24;100.00
24666;BME280;29726;53.532;-1.478;2023-02-11T04:05:46;102140.44;;;14.09;100.00
24666;BME280;29726;53.532;-1.478;2023-02-11T04:08:31;102151.03;;;14.18;100.00
24666;BME280;29726;53.532;-1.478;2023-02-11T04:11:15;102140.44;;;14.09;100.00
24666;BME280;29726;53.532;-1.478;2023-02-11T04:13:59;102157.75;;;14.20;100.00
24666;BME280;29726;53.532;-1.478;2023-02-11T04:16:43;102150.31;;;14.14;100.00
24666;BME280;29726;53.532;-1.478;2023-02-11T04:19:27;102161.03;;;14.19;100.00
24666;BME280;29726;53.532;-1.478;2023-02-11T04:22:11;102156.41;;;14.12;100.00
24666;BME280;29726;53.532;-1.478;2023-02-11T04:24:56;102158.66;;;14.17;100.00
24666;BME280;29726;53.532;-1.478;2023-02-11T04:27:40;102163.94;;;14.15;100.00
24666;BME280;29726;53.532;-1.478;2023-02-11T04:30:24;102167.16;;;14.14;100.00
24666;BME280;29726;53.532;-1.478;2023-02-11T04:33:08;102170.22;;;14.19;100.00
24666;BME280;29726;53.532;-1.478;2023-02-11T04:35:52;102175.19;;;14.15;100.00
24666;BME280;29726;53.532;-1.478;2023-02-11T04:38:36;102172.38;;;14.15;100.00
24666;BME280;29726;53.532;-1.478;2023-02-11T04:41:20;102171.34;;;14.09;100.00
24666;BME280;29726;53.532;-1.478;2023-02-11T04:44:04;102158.31;;;14.03;100.00
24666;BME280;29726;53.532;-1.478;2023-02-11T04:46:49;102167.63;;;14.12;100.00
24666;BME280;29726;53.532;-1.478;2023-02-11T04:49:33;102171.69;;;14.11;100.00
24666;BME280;29726;53.532;-1.478;2023-02-11T04:52:17;102168.53;;;14.09;100.00
24666;BME280;29726;53.532;-1.478;2023-02-11T04:55:01;102169.78;;;14.08;100.00
24666;BME280;29726;53.532;-1.478;2023-02-11T04:57:45;102175.25;;;14.12;100.00
24666;BME280;29726;53.532;-1.478;2023-02-11T05:00:29;102177.28;;;14.11;100.00
24666;BME280;29726;53.532;-1.478;2023-02-11T05:03:14;102184.81;;;14.14;100.00
24666;BME280;29726;53.532;-1.478;2023-02-11T05:05:58;102180.22;;;14.08;100.00
24666;BME280;29726;53.532;-1.478;2023-02-11T05:08:42;102180.22;;;14.08;100.00
24666;BME280;29726;53.532;-1.478;2023-02-11T05:11:26;102195.38;;;14.10;100.00
24666;BME280;29726;53.532;-1.478;2023-02-11T05:14:10;102204.16;;;14.12;100.00
24666;BME280;29726;53.532;-1.478;2023-02-11T05:16:55;102204.59;;;14.11;100.00
24666;BME280;29726;53.532;-1.478;2023-02-11T05:19:40;102210.53;;;14.13;100.00
24666;BME280;29726;53.532;-1.478;2023-02-11T05:22:25;102213.81;;;14.11;100.00
24666;BME280;29726;53.532;-1.478;2023-02-11T05:25:09;102173.72;;;13.86;100.00
24666;BME280;29726;53.532;-1.478;2023-02-11T05:27:53;102205.94;;;14.06;100.00
24666;BME280;29726;53.532;-1.478;2023-02-11T05:30:37;102211.91;;;14.08;100.00
24666;BME280;29726;53.532;-1.478;2023-02-11T05:33:21;102212.81;;;14.05;100.00
24666;BME280;29726;53.532;-1.478;2023-02-11T05:36:07;102217.06;;;14.10;100.00
24666;BME280;29726;53.532;-1.478;2023-02-11T05:38:51;102218.63;;;14.11;100.00
24666;BME280;29726;53.532;-1.478;2023-02-11T05:41:35;102242.22;;;14.13;100.00
24666;BME280;29726;53.532;-1.478;2023-02-11T05:44:20;102238.63;;;14.13;100.00
24666;BME280;29726;53.532;-1.478;2023-02-11T05:47:04;102235.28;;;14.05;100.00
24666;BME280;29726;53.532;-1.478;2023-02-11T05:49:51;102243.47;;;14.12;100.00
24666;BME280;29726;53.532;-1.478;2023-02-11T05:52:36;102236.63;;;14.13;100.00
24666;BME280;29726;53.532;-1.478;2023-02-11T05:55:20;102236.72;;;14.10;100.00
24666;BME280;29726;53.532;-1.478;2023-02-11T05:58:05;102240.66;;;14.12;100.00
24666;BME280;29726;53.532;-1.478;2023-02-11T06:00:49;102228.44;;;14.06;100.00
24666;BME280;29726;53.532;-1.478;2023-02-11T06:03:33;102236.38;;;14.08;100.00
24666;BME280;29726;53.532;-1.478;2023-02-11T06:06:18;102238.41;;;14.07;100.00
24666;BME280;29726;53.532;-1.478;2023-02-11T06:09:02;102236.94;;;14.03;100.00
24666;BME280;29726;53.532;-1.478;2023-02-11T06:11:46;102207.88;;;13.84;100.00
24666;BME280;29726;53.532;-1.478;2023-02-11T06:14:33;102241.91;;;14.11;100.00
24666;BME280;29726;53.532;-1.478;2023-02-11T06:17:17;102239.41;;;14.13;100.00
24666;BME280;29726;53.532;-1.478;2023-02-11T06:20:04;102211.25;;;14.04;100.00
24666;BME280;29726;53.532;-1.478;2023-02-11T06:22:48;102204.81;;;14.04;100.00
24666;BME280;29726;53.532;-1.478;2023-02-11T06:25:32;102222.56;;;14.13;100.00
24666;BME280;29726;53.532;-1.478;2023-02-11T06:28:16;102223.81;;;14.12;100.00
24666;BME280;29726;53.532;-1.478;2023-02-11T06:31:05;102231.00;;;14.13;100.00
24666;BME280;29726;53.532;-1.478;2023-02-11T06:33:50;102218.75;;;14.07;100.00
24666;BME280;29726;53.532;-1.478;2023-02-11T06:36:35;102235.03;;;14.12;100.00
24666;BME280;29726;53.532;-1.478;2023-02-11T06:39:21;102230.75;;;14.08;100.00
24666;BME280;29726;53.532;-1.478;2023-02-11T06:42:05;102232.34;;;14.09;100.00
24666;BME280;29726;53.532;-1.478;2023-02-11T06:44:49;102245.47;;;14.12;100.00
24666;BME280;29726;53.532;-1.478;2023-02-11T06:47:33;102253.56;;;14.10;100.00
24666;BME280;29726;53.532;-1.478;2023-02-11T06:50:18;102259.09;;;14.13;100.00
24666;BME280;29726;53.532;-1.478;2023-02-11T06:53:02;102254.38;;;14.10;100.00
24666;BME280;29726;53.532;-1.478;2023-02-11T06:55:47;102256.03;;;14.08;100.00
24666;BME280;29726;53.532;-1.478;2023-02-11T06:58:32;102282.00;;;14.12;100.00
24666;BME280;29726;53.532;-1.478;2023-02-11T07:01:16;102265.47;;;14.01;100.00
24666;BME280;29726;53.532;-1.478;2023-02-11T07:04:00;102274.59;;;14.05;100.00
24666;BME280;29726;53.532;-1.478;2023-02-11T07:06:44;102284.81;;;14.12;100.00
24666;BME280;29726;53.532;-1.478;2023-02-11T07:09:28;102272.47;;;14.09;100.00
24666;BME280;29726;53.532;-1.478;2023-02-11T07:12:12;102267.75;;;14.06;100.00
24666;BME280;29726;53.532;-1.478;2023-02-11T07:14:56;102270.75;;;14.12;100.00
24666;BME280;29726;53.532;-1.478;2023-02-11T07:17:40;102249.09;;;14.00;100.00
24666;BME280;29726;53.532;-1.478;2023-02-11T07:20:24;102268.41;;;14.10;100.00
24666;BME280;29726;53.532;-1.478;2023-02-11T07:23:09;102284.03;;;14.11;100.00
24666;BME280;29726;53.532;-1.478;2023-02-11T07:25:53;102293.69;;;14.10;100.00
24666;BME280;29726;53.532;-1.478;2023-02-11T07:28:38;102294.47;;;14.11;100.00
24666;BME280;29726;53.532;-1.478;2023-02-11T07:31:25;102302.13;;;14.10;100.00
24666;BME280;29726;53.532;-1.478;2023-02-11T07:34:09;102303.00;;;14.07;100.00
24666;BME280;29726;53.532;-1.478;2023-02-11T07:36:53;102286.81;;;13.99;100.00
24666;BME280;29726;53.532;-1.478;2023-02-11T07:39:37;102285.47;;;14.03;100.00
24666;BME280;29726;53.532;-1.478;2023-02-11T07:42:21;102296.94;;;14.09;100.00
24666;BME280;29726;53.532;-1.478;2023-02-11T07:45:05;102305.81;;;14.07;100.00
24666;BME280;29726;53.532;-1.478;2023-02-11T07:47:50;102302.44;;;14.00;100.00
24666;BME280;29726;53.532;-1.478;2023-02-11T07:50:34;102301.53;;;13.90;100.00
24666;BME280;29726;53.532;-1.478;2023-02-11T07:53:18;102320.41;;;14.02;100.00
24666;BME280;29726;53.532;-1.478;2023-02-11T07:56:03;102324.78;;;14.03;100.00
24666;BME280;29726;53.532;-1.478;2023-02-11T07:58:49;102313.13;;;14.05;100.00
24666;BME280;29726;53.532;-1.478;2023-02-11T08:01:33;102312.34;;;14.04;100.00
24666;BME280;29726;53.532;-1.478;2023-02-11T08:04:17;102307.06;;;14.06;100.00
24666;BME280;29726;53.532;-1.478;2023-02-11T08:07:01;102305.03;;;14.07;100.00
24666;BME280;29726;53.532;-1.478;2023-02-11T08:09:45;102300.06;;;13.98;100.00
24666;BME280;29726;53.532;-1.478;2023-02-11T08:12:29;102317.06;;;14.07;100.00
24666;BME280;29726;53.532;-1.478;2023-02-11T08:15:13;102313.44;;;14.07;100.00
24666;BME280;29726;53.532;-1.478;2023-02-11T08:17:57;102307.59;;;14.01;100.00
24666;BME280;29726;53.532;-1.478;2023-02-11T08:20:41;102310.31;;;14.05;100.00
24666;BME280;29726;53.532;-1.478;2023-02-11T08:23:25;102307.50;;;14.05;100.00
24666;BME280;29726;53.532;-1.478;2023-02-11T08:26:13;102317.97;;;14.04;100.00
24666;BME280;29726;53.532;-1.478;2023-02-11T08:28:57;102326.16;;;14.11;100.00
24666;BME280;29726;53.532;-1.478;2023-02-11T08:31:45;102316.59;;;14.09;100.00
24666;BME280;29726;53.532;-1.478;2023-02-11T08:34:29;102325.03;;;14.09;100.00
24666;BME280;29726;53.532;-1.478;2023-02-11T08:37:13;102324.94;;;14.12;100.00
24666;BME280;29726;53.532;-1.478;2023-02-11T08:39:57;102309.41;;;14.08;100.00
24666;BME280;29726;53.532;-1.478;2023-02-11T08:42:41;102313.22;;;14.14;100.00
24666;BME280;29726;53.532;-1.478;2023-02-11T08:45:25;102307.41;;;14.08;100.00
24666;BME280;29726;53.532;-1.478;2023-02-11T08:48:09;102333.28;;;14.16;100.00
24666;BME280;29726;53.532;-1.478;2023-02-11T08:50:54;102318.28;;;14.06;100.00
24666;BME280;29726;53.532;-1.478;2023-02-11T08:53:39;102346.09;;;14.17;100.00
24666;BME280;29726;53.532;-1.478;2023-02-11T08:56:24;102337.19;;;14.18;100.00
24666;BME280;29726;53.532;-1.478;2023-02-11T08:59:13;102343.63;;;14.19;100.00
24666;BME280;29726;53.532;-1.478;2023-02-11T09:01:58;102332.13;;;14.13;100.00
24666;BME280;29726;53.532;-1.478;2023-02-11T09:04:41;102330.34;;;14.19;100.00
24666;BME280;29726;53.532;-1.478;2023-02-11T09:07:27;102345.53;;;14.22;100.00
24666;BME280;29726;53.532;-1.478;2023-02-11T09:10:11;102341.16;;;14.21;100.00
24666;BME280;29726;53.532;-1.478;2023-02-11T09:12:55;102327.41;;;14.10;100.00
24666;BME280;29726;53.532;-1.478;2023-02-11T09:15:39;102343.84;;;14.24;100.00
24666;BME280;29726;53.532;-1.478;2023-02-11T09:18:23;102343.84;;;14.24;100.00
24666;BME280;29726;53.532;-1.478;2023-02-11T09:21:08;102329.44;;;14.22;100.00
24666;BME280;29726;53.532;-1.478;2023-02-11T09:23:52;102323.72;;;14.26;100.00
24666;BME280;29726;53.532;-1.478;2023-02-11T09:26:37;102306.31;;;14.18;100.00
24666;BME280;29726;53.532;-1.478;2023-02-11T09:29:21;102324.50;;;14.26;100.00
24666;BME280;29726;53.532;-1.478;2023-02-11T09:32:06;102315.06;;;14.20;100.00
24666;BME280;29726;53.532;-1.478;2023-02-11T09:34:50;102335.75;;;14.26;100.00
24666;BME280;29726;53.532;-1.478;2023-02-11T09:37:34;102352.41;;;14.33;100.00
24666;BME280;29726;53.532;-1.478;2023-02-11T09:40:18;102348.78;;;14.33;100.00
24666;BME280;29726;53.532;-1.478;2023-02-11T09:43:06;102350.81;;;14.32;100.00
24666;BME280;29726;53.532;-1.478;2023-02-11T09:45:54;102334.31;;;14.34;100.00
24666;BME280;29726;53.532;-1.478;2023-02-11T09:48:42;102348.13;;;14.41;100.00
24666;BME280;29726;53.532;-1.478;2023-02-11T09:57:16;102360.84;;;14.46;100.00
24666;BME280;29726;53.532;-1.478;2023-02-11T10:00:02;102366.78;;;14.48;100.00
24666;BME280;29726;53.532;-1.478;2023-02-11T10:07:10;102375.91;;;14.52;100.00
24666;BME280;29726;53.532;-1.478;2023-02-11T10:19:08;102382.53;;;14.58;100.00
24666;BME280;29726;53.532;-1.478;2023-02-11T10:24:55;102371.19;;;14.61;100.00
24666;BME280;29726;53.532;-1.478;2023-02-11T10:27:46;102366.47;;;14.58;100.00
24666;BME280;29726;53.532;-1.478;2023-02-11T10:30:37;102363.50;;;14.62;100.00
24666;BME280;29726;53.532;-1.478;2023-02-11T10:33:33;102378.72;;;14.64;100.00
24666;BME280;29726;53.532;-1.478;2023-02-11T10:36:24;102368.94;;;14.56;100.00
24666;BME280;29726;53.532;-1.478;2023-02-11T10:42:06;102382.09;;;14.72;100.00
24666;BME280;29726;53.532;-1.478;2023-02-11T10:45:02;102385.22;;;14.74;100.00
24666;BME280;29726;53.532;-1.478;2023-02-11T10:47:46;102368.03;;;14.72;100.00
24666;BME280;29726;53.532;-1.478;2023-02-11T10:50:32;102381.84;;;14.79;100.00
24666;BME280;29726;53.532;-1.478;2023-02-11T10:53:19;102364.63;;;14.77;100.00
24666;BME280;29726;53.532;-1.478;2023-02-11T10:56:05;102361.16;;;14.85;100.00
24666;BME280;29726;53.532;-1.478;2023-02-11T10:59:14;102356.19;;;14.89;100.00
24666;BME280;29726;53.532;-1.478;2023-02-11T11:02:04;102364.97;;;14.91;100.00
24666;BME280;29726;53.532;-1.478;2023-02-11T11:04:55;102371.81;;;14.90;100.00
24666;BME280;29726;53.532;-1.478;2023-02-11T11:08:01;102342.38;;;14.70;100.00
24666;BME280;29726;53.532;-1.478;2023-02-11T11:11:05;102364.97;;;14.91;100.00
24666;BME280;29726;53.532;-1.478;2023-02-11T11:13:56;102370.69;;;15.00;100.00
24666;BME280;29726;53.532;-1.478;2023-02-11T11:16:51;102376.41;;;15.09;100.00
24666;BME280;29726;53.532;-1.478;2023-02-11T11:19:36;102359.97;;;15.07;100.00
24666;BME280;29726;53.532;-1.478;2023-02-11T11:22:22;102360.19;;;15.13;100.00
24666;BME280;29726;53.532;-1.478;2023-02-11T11:25:20;102367.94;;;15.21;100.00
24666;BME280;29726;53.532;-1.478;2023-02-11T11:28:05;102349.94;;;15.19;100.00
24666;BME280;29726;53.532;-1.478;2023-02-11T11:30:52;102373.34;;;15.28;100.00
24666;BME280;29726;53.532;-1.478;2023-02-11T11:33:40;102350.84;;;15.28;100.00
24666;BME280;29726;53.532;-1.478;2023-02-11T11:36:37;102349.03;;;15.34;100.00
24666;BME280;29726;53.532;-1.478;2023-02-11T11:42:26;102359.38;;;15.37;100.00
24666;BME280;29726;53.532;-1.478;2023-02-11T11:45:24;102363.63;;;15.42;100.00
24666;BME280;29726;53.532;-1.478;2023-02-11T11:48:17;102346.06;;;15.38;100.00
24666;BME280;29726;53.532;-1.478;2023-02-11T11:51:09;102340.22;;;15.45;100.00
24666;BME280;29726;53.532;-1.478;2023-02-11T11:54:03;102325.78;;;15.43;100.00
24666;BME280;29726;53.532;-1.478;2023-02-11T11:56:54;102349.31;;;15.49;100.00
24666;BME280;29726;53.532;-1.478;2023-02-11T11:59:41;102341.97;;;15.51;100.00
24666;BME280;29726;53.532;-1.478;2023-02-11T12:02:39;102353.09;;;15.55;100.00
24666;BME280;29726;53.532;-1.478;2023-02-11T12:05:35;102342.50;;;15.59;100.00
24666;BME280;29726;53.532;-1.478;2023-02-11T12:09:04;102338.38;;;15.51;100.00
24666;BME280;29726;53.532;-1.478;2023-02-11T12:18:35;102335.56;;;15.72;100.00
24666;BME280;29726;53.532;-1.478;2023-02-11T12:27:20;102350.06;;;15.83;100.00
24666;BME280;29726;53.532;-1.478;2023-02-11T12:33:43;102320.19;;;15.64;100.00
24666;BME280;29726;53.532;-1.478;2023-02-11T12:51:52;102336.44;;;16.12;100.00
24666;BME280;29726;53.532;-1.478;2023-02-11T12:54:46;102319.66;;;16.09;100.00
24666;BME280;29726;53.532;-1.478;2023-02-11T12:57:38;102337.41;;;16.18;100.00
24666;BME280;29726;53.532;-1.478;2023-02-11T13:01:14;102341.34;;;16.21;100.00
24666;BME280;29726;53.532;-1.478;2023-02-11T13:03:43;102336.00;;;16.14;100.00
24666;BME280;29726;53.532;-1.478;2023-02-11T13:06:34;102340.22;;;16.18;100.00
24666;BME280;29726;53.532;-1.478;2023-02-11T13:09:27;102352.22;;;16.31;100.00
24666;BME280;29726;53.532;-1.478;2023-02-11T13:12:16;102326.34;;;16.24;100.00
24666;BME280;29726;53.532;-1.478;2023-02-11T13:15:19;102353.31;;;16.34;100.00
24666;BME280;29726;53.532;-1.478;2023-02-11T13:19:12;102376.56;;;16.38;100.00
24666;BME280;29726;53.532;-1.478;2023-02-11T13:25:17;102361.38;;;16.44;100.00
24666;BME280;29726;53.532;-1.478;2023-02-11T13:28:33;102362.50;;;16.47;100.00
24666;BME280;29726;53.532;-1.478;2023-02-11T13:31:23;102374.88;;;16.28;100.00
24666;BME280;29726;53.532;-1.478;2023-02-11T13:37:38;102387.13;;;16.34;100.00
24666;BME280;29726;53.532;-1.478;2023-02-11T13:40:25;102366.13;;;16.26;100.00
24666;BME280;29726;53.532;-1.478;2023-02-11T13:43:24;102370.13;;;16.37;100.00
24666;BME280;29726;53.532;-1.478;2023-02-11T13:46:12;102355.34;;;16.33;100.00
24666;BME280;29726;53.532;-1.478;2023-02-11T13:48:57;102354.53;;;16.24;100.00
24666;BME280;29726;53.532;-1.478;2023-02-11T13:51:42;102366.75;;;16.30;100.00
24666;BME280;29726;53.532;-1.478;2023-02-11T13:54:33;102382.56;;;16.27;100.00
24666;BME280;29726;53.532;-1.478;2023-02-11T13:57:24;102400.13;;;16.31;100.00
24666;BME280;29726;53.532;-1.478;2023-02-11T14:03:28;102341.72;;;16.01;100.00
24666;BME280;29726;53.532;-1.478;2023-02-11T14:06:31;102394.38;;;16.35;100.00
24666;BME280;29726;53.532;-1.478;2023-02-11T14:09:37;102388.72;;;16.35;100.00
24666;BME280;29726;53.532;-1.478;2023-02-11T14:12:29;102363.50;;;16.10;100.00
24666;BME280;29726;53.532;-1.478;2023-02-11T14:15:19;102380.53;;;16.28;100.00
24666;BME280;29726;53.532;-1.478;2023-02-11T14:27:09;102386.59;;;16.39;100.00
24666;BME280;29726;53.532;-1.478;2023-02-11T14:39:14;102389.63;;;16.32;100.00
24666;BME280;29726;53.532;-1.478;2023-02-11T14:42:02;102399.34;;;16.31;100.00
24666;BME280;29726;53.532;-1.478;2023-02-11T14:44:49;102406.44;;;16.35;100.00
24666;BME280;29726;53.532;-1.478;2023-02-11T14:47:47;102414.47;;;16.37;100.00
24666;BME280;29726;53.532;-1.478;2023-02-11T14:50:56;102418.03;;;16.37;100.00
24666;BME280;29726;53.532;-1.478;2023-02-11T14:53:44;102426.50;;;16.37;100.00
24666;BME280;29726;53.532;-1.478;2023-02-11T14:56:30;102426.94;;;16.36;100.00
24666;BME280;29726;53.532;-1.478;2023-02-11T14:59:20;102409.84;;;16.30;100.00
24666;BME280;29726;53.532;-1.478;2023-02-11T15:02:24;102417.38;;;16.33;100.00
24666;BME280;29726;53.532;-1.478;2023-02-11T15:05:24;102423.78;;;16.34;100.00
24666;BME280;29726;53.532;-1.478;2023-02-11T15:08:13;102423.47;;;16.32;100.00
24666;BME280;29726;53.532;-1.478;2023-02-11T15:11:00;102447.16;;;16.34;100.00
24666;BME280;29726;53.532;-1.478;2023-02-11T15:13:46;102434.22;;;16.24;100.00
24666;BME280;29726;53.532;-1.478;2023-02-11T15:16:33;102423.53;;;16.19;100.00
24666;BME280;29726;53.532;-1.478;2023-02-11T15:19:34;102421.84;;;16.22;100.00
24666;BME280;29726;53.532;-1.478;2023-02-11T15:22:22;102422.28;;;16.20;100.00
24666;BME280;29726;53.532;-1.478;2023-02-11T15:25:13;102426.22;;;16.23;100.00
24666;BME280;29726;53.532;-1.478;2023-02-11T15:27:59;102427.94;;;16.20;100.00
24666;BME280;29726;53.532;-1.478;2023-02-11T15:30:43;102429.81;;;16.23;100.00
24666;BME280;29726;53.532;-1.478;2023-02-11T15:33:27;102419.34;;;16.24;100.00
24666;BME280;29726;53.532;-1.478;2023-02-11T15:36:17;102437.38;;;16.26;100.00
24666;BME280;29726;53.532;-1.478;2023-02-11T15:39:18;102430.94;;;16.26;100.00
24666;BME280;29726;53.532;-1.478;2023-02-11T15:50:55;102433.75;;;16.26;100.00
24666;BME280;29726;53.532;-1.478;2023-02-11T15:53:42;102437.72;;;16.28;100.00
24666;BME280;29726;53.532;-1.478;2023-02-11T15:56:35;102442.88;;;16.30;100.00
24666;BME280;29726;53.532;-1.478;2023-02-11T15:59:37;102438.16;;;16.27;100.00
24666;BME280;29726;53.532;-1.478;2023-02-11T16:02:32;102443.66;;;16.30;100.00
24666;BME280;29726;53.532;-1.478;2023-02-11T16:05:29;102448.97;;;16.28;100.00
24666;BME280;29726;53.532;-1.478;2023-02-11T16:08:24;102445.03;;;16.26;100.00
24666;BME280;29726;53.532;-1.478;2023-02-11T16:11:25;102438.28;;;16.23;100.00
24666;BME280;29726;53.532;-1.478;2023-02-11T16:14:32;102461.81;;;16.29;100.00
24666;BME280;29726;53.532;-1.478;2023-02-11T16:17:21;102454.63;;;16.28;100.00
24666;BME280;29726;53.532;-1.478;2023-02-11T16:20:17;102440.97;;;16.27;100.00